Malaspina — WI6803 — position and weather

sailwx.info

Track history (hours):
 
Tides and Currents Weather Stations Pressure Air Temp Water Temp Dewpoint Dewpoint Depression Visibility Wind Speed Wind Dir Waves Ship Positions

Malaspina

Owner: ALASKA, STATE OF, ANCHORAGE, AK. More information available from US FCC via Universal Licensing System and Coast Guard Vessel Documentation Center.

Last reported at 2019-Aug-20 09:29 UTC. Time now 2019-Aug-20 09:31 UTC.
Position N 54°18' W 130°21'.

Type: Passenger vessel. MMSI: 367143000.

Date/timePositionNaut miles runAvg speedWind from/ knotsBaromVisibWave heightAir tempDewpointWater temp
2019-Aug-20 09:29N 54°18' W 130°21'0 0.0
2019-Aug-20 08:59N 54°18' W 130°21'0 0.0
2019-Aug-20 08:29N 54°18' W 130°21'0 0.0
2019-Aug-20 07:59N 54°18' W 130°21'0 0.0
2019-Aug-20 07:29N 54°18' W 130°21'0 0.0
2019-Aug-20 06:59N 54°18' W 130°21'0 0.0
2019-Aug-20 06:30N 54°18' W 130°21'0 0.5
2019-Aug-20 06:00N 54°18' W 130°22'5 9.3
2019-Aug-20 05:31N 54°13' W 130°22'815.0
2019-Aug-20 05:00N 54°17' W 130°33'815.2
2019-Aug-20 04:30N 54°24' W 130°37'816.4
2019-Aug-20 04:00N 54°32' W 130°39'815.7
2019-Aug-20 03:29N 54°39' W 130°47'715.8
2019-Aug-20 03:01N 54°45' W 130°55'  
2019-Aug-17 05:21N 54°48' W 130°59'514.8
2019-Aug-17 05:00N 54°44' W 130°53'714.8
2019-Aug-17 04:30N 54°38' W 130°45'714.1
2019-Aug-17 04:00N 54°32' W 130°39'714.7
2019-Aug-17 03:31N 54°25' W 130°37'714.2
2019-Aug-17 03:00N 54°18' W 130°34'714.8
2019-Aug-17 02:30N 54°13' W 130°24'5 9.6
2019-Aug-17 02:00N 54°18' W 130°22'0 0.4
2019-Aug-17 01:28N 54°18' W 130°21'0 0.0
2019-Aug-17 00:58N 54°18' W 130°21'0 0.0
2019-Aug-17 00:28N 54°18' W 130°21'0 0.0
2019-Aug-16 23:58N 54°18' W 130°21'0 0.0
2019-Aug-16 23:16N 54°18' W 130°21'0 0.0
2019-Aug-16 22:58N 54°18' W 130°21'0 0.0
2019-Aug-16 22:25N 54°18' W 130°21'0 0.0
2019-Aug-16 21:58N 54°18' W 130°21'0 0.0
2019-Aug-16 21:30N 54°18' W 130°21'3 5.6
2019-Aug-16 21:00N 54°15' W 130°21'5 9.1
2019-Aug-16 20:30N 54°15' W 130°29'714.1
2019-Aug-16 20:00N 54°21' W 130°36'714.7
2019-Aug-16 19:30N 54°28' W 130°38'815.0
2019-Aug-16 19:00N 54°36' W 130°41'714.9
2019-Aug-16 18:30N 54°41' W 130°49'715.1
2019-Aug-16 18:00N 54°47' W 130°57'  
2019-Aug-13 10:06N 54°47' W 130°58'216.7
2019-Aug-13 10:00N 54°46' W 130°56'816.9
2019-Aug-13 09:30N 54°39' W 130°47'816.4
2019-Aug-13 09:01N 54°33' W 130°39'816.8
2019-Aug-13 08:30N 54°24' W 130°37'816.0
2019-Aug-13 08:00N 54°17' W 130°32'713.7
2019-Aug-13 07:30N 54°14' W 130°21'4 8.0
2019-Aug-13 07:00N 54°18' W 130°21'0 0.1
2019-Aug-13 05:55N 54°18' W 130°21'0 0.0
2019-Aug-13 04:13N 54°18' W 130°21'0 0.0
2019-Aug-13 03:55N 54°18' W 130°21'0 0.0
2019-Aug-13 03:28N 54°18' W 130°21'0 0.0
2019-Aug-13 03:00N 54°18' W 130°21'5 4.9
2019-Aug-13 02:00N 54°14' W 130°25'816.1
2019-Aug-13 01:31N 54°19' W 130°35'816.2
2019-Aug-13 01:00N 54°27' W 130°38'816.3
2019-Aug-13 00:30N 54°35' W 130°40'816.1
2019-Aug-13 00:00N 54°41' W 130°50'816.0
2019-Aug-12 23:30N 54°47' W 130°58'  
Track history (hours):
 
Tides and Currents Weather Stations Pressure Air Temp Water Temp Dewpoint Dewpoint Depression Visibility Wind Speed Wind Dir Waves Ship Positions

Malaspina

Owner: ALASKA, STATE OF, ANCHORAGE, AK. More information available from US FCC via Universal Licensing System and Coast Guard Vessel Documentation Center.

Last reported at 2019-Aug-20 09:29 UTC. Time now 2019-Aug-20 09:31 UTC.
Position N 54°18' W 130°21'.

Type: Passenger vessel. MMSI: 367143000.

Date/timePositionNaut miles runAvg speedWind from/ knotsBaromVisibWave heightAir tempDewpointWater temp
2019-Aug-20 09:29N 54°18' W 130°21'0 0.0
2019-Aug-20 08:59N 54°18' W 130°21'0 0.0
2019-Aug-20 08:29N 54°18' W 130°21'0 0.0
2019-Aug-20 07:59N 54°18' W 130°21'0 0.0
2019-Aug-20 07:29N 54°18' W 130°21'0 0.0
2019-Aug-20 06:59N 54°18' W 130°21'0 0.0
2019-Aug-20 06:30N 54°18' W 130°21'0 0.5
2019-Aug-20 06:00N 54°18' W 130°22'5 9.3
2019-Aug-20 05:31N 54°13' W 130°22'815.0
2019-Aug-20 05:00N 54°17' W 130°33'815.2
2019-Aug-20 04:30N 54°24' W 130°37'816.4
2019-Aug-20 04:00N 54°32' W 130°39'815.7
2019-Aug-20 03:29N 54°39' W 130°47'715.8
2019-Aug-20 03:01N 54°45' W 130°55'  
2019-Aug-17 05:21N 54°48' W 130°59'514.8
2019-Aug-17 05:00N 54°44' W 130°53'714.8
2019-Aug-17 04:30N 54°38' W 130°45'714.1
2019-Aug-17 04:00N 54°32' W 130°39'714.7
2019-Aug-17 03:31N 54°25' W 130°37'714.2
2019-Aug-17 03:00N 54°18' W 130°34'714.8
2019-Aug-17 02:30N 54°13' W 130°24'5 9.6
2019-Aug-17 02:00N 54°18' W 130°22'0 0.4
2019-Aug-17 01:28N 54°18' W 130°21'0 0.0
2019-Aug-17 00:58N 54°18' W 130°21'0 0.0
2019-Aug-17 00:28N 54°18' W 130°21'0 0.0
2019-Aug-16 23:58N 54°18' W 130°21'0 0.0
2019-Aug-16 23:16N 54°18' W 130°21'0 0.0
2019-Aug-16 22:58N 54°18' W 130°21'0 0.0
2019-Aug-16 22:25N 54°18' W 130°21'0 0.0
2019-Aug-16 21:58N 54°18' W 130°21'0 0.0
2019-Aug-16 21:30N 54°18' W 130°21'3 5.6
2019-Aug-16 21:00N 54°15' W 130°21'5 9.1
2019-Aug-16 20:30N 54°15' W 130°29'714.1
2019-Aug-16 20:00N 54°21' W 130°36'714.7
2019-Aug-16 19:30N 54°28' W 130°38'815.0
2019-Aug-16 19:00N 54°36' W 130°41'714.9
2019-Aug-16 18:30N 54°41' W 130°49'715.1
2019-Aug-16 18:00N 54°47' W 130°57'  
2019-Aug-13 10:06N 54°47' W 130°58'216.7
2019-Aug-13 10:00N 54°46' W 130°56'816.9
2019-Aug-13 09:30N 54°39' W 130°47'816.4
2019-Aug-13 09:01N 54°33' W 130°39'816.8
2019-Aug-13 08:30N 54°24' W 130°37'816.0
2019-Aug-13 08:00N 54°17' W 130°32'713.7
2019-Aug-13 07:30N 54°14' W 130°21'4 8.0
2019-Aug-13 07:00N 54°18' W 130°21'0 0.1
2019-Aug-13 05:55N 54°18' W 130°21'0 0.0
2019-Aug-13 04:13N 54°18' W 130°21'0 0.0
2019-Aug-13 03:55N 54°18' W 130°21'0 0.0
2019-Aug-13 03:28N 54°18' W 130°21'0 0.0
2019-Aug-13 03:00N 54°18' W 130°21'5 4.9
2019-Aug-13 02:00N 54°14' W 130°25'816.1
2019-Aug-13 01:31N 54°19' W 130°35'816.2
2019-Aug-13 01:00N 54°27' W 130°38'816.3
2019-Aug-13 00:30N 54°35' W 130°40'816.1
2019-Aug-13 00:00N 54°41' W 130°50'816.0
2019-Aug-12 23:30N 54°47' W 130°58'  

Dump ship's entire track history